sensor_id;sensor_type;location;lat;lon;timestamp;P1;durP1;ratioP1;P2;durP2;ratioP2
1509;SDS011;746;48.688;9.428;2022-08-19T00:00:03;29.83;;;27.27;;
1509;SDS011;746;48.688;9.428;2022-08-19T00:02:28;30.90;;;28.10;;
1509;SDS011;746;48.688;9.428;2022-08-19T00:04:51;30.43;;;27.83;;
1509;SDS011;746;48.688;9.428;2022-08-19T00:07:14;31.77;;;28.87;;
1509;SDS011;746;48.688;9.428;2022-08-19T00:09:36;31.27;;;28.37;;
1509;SDS011;746;48.688;9.428;2022-08-19T00:11:59;31.63;;;28.73;;
1509;SDS011;746;48.688;9.428;2022-08-19T00:14:22;31.07;;;28.23;;
1509;SDS011;746;48.688;9.428;2022-08-19T00:16:45;32.90;;;29.90;;
1509;SDS011;746;48.688;9.428;2022-08-19T00:19:10;33.90;;;30.70;;
1509;SDS011;746;48.688;9.428;2022-08-19T00:21:33;30.90;;;28.03;;
1509;SDS011;746;48.688;9.428;2022-08-19T00:23:58;29.20;;;26.43;;
1509;SDS011;746;48.688;9.428;2022-08-19T00:26:21;30.40;;;27.60;;
1509;SDS011;746;48.688;9.428;2022-08-19T00:28:43;29.77;;;27.10;;
1509;SDS011;746;48.688;9.428;2022-08-19T00:31:07;30.27;;;27.63;;
1509;SDS011;746;48.688;9.428;2022-08-19T00:33:30;29.80;;;27.03;;
1509;SDS011;746;48.688;9.428;2022-08-19T00:35:56;30.87;;;27.93;;
1509;SDS011;746;48.688;9.428;2022-08-19T00:38:18;29.93;;;27.20;;
1509;SDS011;746;48.688;9.428;2022-08-19T00:40:57;32.03;;;29.13;;
1509;SDS011;746;48.688;9.428;2022-08-19T00:43:20;31.37;;;28.47;;
1509;SDS011;746;48.688;9.428;2022-08-19T00:45:44;31.17;;;28.27;;
1509;SDS011;746;48.688;9.428;2022-08-19T00:48:07;34.10;;;30.73;;
1509;SDS011;746;48.688;9.428;2022-08-19T00:50:34;33.10;;;30.10;;
1509;SDS011;746;48.688;9.428;2022-08-19T00:53:12;32.33;;;29.30;;
1509;SDS011;746;48.688;9.428;2022-08-19T00:55:39;33.93;;;30.53;;
1509;SDS011;746;48.688;9.428;2022-08-19T00:58:02;33.67;;;30.13;;
1509;SDS011;746;48.688;9.428;2022-08-19T01:00:27;33.40;;;30.33;;
1509;SDS011;746;48.688;9.428;2022-08-19T01:02:49;34.17;;;31.00;;
1509;SDS011;746;48.688;9.428;2022-08-19T01:05:13;33.07;;;29.83;;
1509;SDS011;746;48.688;9.428;2022-08-19T01:07:35;34.00;;;31.00;;
1509;SDS011;746;48.688;9.428;2022-08-19T01:10:00;32.80;;;29.90;;
1509;SDS011;746;48.688;9.428;2022-08-19T01:12:22;33.43;;;30.23;;
1509;SDS011;746;48.688;9.428;2022-08-19T01:14:44;33.67;;;30.57;;
1509;SDS011;746;48.688;9.428;2022-08-19T01:17:06;34.40;;;31.27;;
1509;SDS011;746;48.688;9.428;2022-08-19T01:19:32;31.70;;;28.87;;
1509;SDS011;746;48.688;9.428;2022-08-19T01:22:04;31.80;;;28.90;;
1509;SDS011;746;48.688;9.428;2022-08-19T01:24:37;32.67;;;29.57;;
1509;SDS011;746;48.688;9.428;2022-08-19T01:27:08;31.83;;;28.83;;
1509;SDS011;746;48.688;9.428;2022-08-19T01:29:31;30.97;;;28.17;;
1509;SDS011;746;48.688;9.428;2022-08-19T01:31:55;30.57;;;27.77;;
1509;SDS011;746;48.688;9.428;2022-08-19T01:34:17;29.17;;;26.37;;
1509;SDS011;746;48.688;9.428;2022-08-19T01:36:41;30.07;;;27.37;;
1509;SDS011;746;48.688;9.428;2022-08-19T01:39:07;28.17;;;25.57;;
1509;SDS011;746;48.688;9.428;2022-08-19T01:41:34;28.80;;;26.10;;
1509;SDS011;746;48.688;9.428;2022-08-19T01:43:56;30.33;;;27.37;;
1509;SDS011;746;48.688;9.428;2022-08-19T01:46:38;29.77;;;26.80;;
1509;SDS011;746;48.688;9.428;2022-08-19T01:49:01;29.03;;;26.43;;
1509;SDS011;746;48.688;9.428;2022-08-19T01:51:24;29.17;;;26.17;;
1509;SDS011;746;48.688;9.428;2022-08-19T01:53:48;27.67;;;25.17;;
1509;SDS011;746;48.688;9.428;2022-08-19T01:56:09;30.20;;;27.30;;
1509;SDS011;746;48.688;9.428;2022-08-19T01:58:35;28.20;;;25.50;;
1509;SDS011;746;48.688;9.428;2022-08-19T02:00:59;28.33;;;25.73;;
1509;SDS011;746;48.688;9.428;2022-08-19T02:03:21;27.23;;;24.53;;
1509;SDS011;746;48.688;9.428;2022-08-19T02:05:43;29.63;;;27.00;;
1509;SDS011;746;48.688;9.428;2022-08-19T02:08:05;30.37;;;27.47;;
1509;SDS011;746;48.688;9.428;2022-08-19T02:10:27;32.67;;;29.47;;
1509;SDS011;746;48.688;9.428;2022-08-19T02:12:49;28.93;;;26.07;;
1509;SDS011;746;48.688;9.428;2022-08-19T02:15:12;29.50;;;26.77;;
1509;SDS011;746;48.688;9.428;2022-08-19T02:17:34;27.70;;;25.10;;
1509;SDS011;746;48.688;9.428;2022-08-19T02:19:56;26.07;;;23.67;;
1509;SDS011;746;48.688;9.428;2022-08-19T02:22:17;28.73;;;25.97;;
1509;SDS011;746;48.688;9.428;2022-08-19T02:24:39;27.87;;;25.27;;
1509;SDS011;746;48.688;9.428;2022-08-19T02:27:00;27.43;;;24.83;;
1509;SDS011;746;48.688;9.428;2022-08-19T02:29:22;27.57;;;25.07;;
1509;SDS011;746;48.688;9.428;2022-08-19T02:31:44;29.63;;;26.93;;
1509;SDS011;746;48.688;9.428;2022-08-19T02:34:06;30.10;;;27.20;;
1509;SDS011;746;48.688;9.428;2022-08-19T02:36:28;29.93;;;27.10;;
1509;SDS011;746;48.688;9.428;2022-08-19T02:38:50;28.87;;;25.97;;
1509;SDS011;746;48.688;9.428;2022-08-19T02:41:15;28.27;;;25.63;;
1509;SDS011;746;48.688;9.428;2022-08-19T02:43:38;28.03;;;25.33;;
1509;SDS011;746;48.688;9.428;2022-08-19T02:46:22;29.80;;;26.87;;
1509;SDS011;746;48.688;9.428;2022-08-19T02:48:49;30.13;;;27.23;;
1509;SDS011;746;48.688;9.428;2022-08-19T02:51:15;31.73;;;28.73;;
1509;SDS011;746;48.688;9.428;2022-08-19T02:53:37;30.93;;;27.87;;
1509;SDS011;746;48.688;9.428;2022-08-19T02:55:58;30.13;;;27.23;;
1509;SDS011;746;48.688;9.428;2022-08-19T02:58:20;31.20;;;28.00;;
1509;SDS011;746;48.688;9.428;2022-08-19T03:00:44;30.83;;;27.83;;
1509;SDS011;746;48.688;9.428;2022-08-19T03:03:08;29.53;;;26.57;;
1509;SDS011;746;48.688;9.428;2022-08-19T03:05:32;33.00;;;29.83;;
1509;SDS011;746;48.688;9.428;2022-08-19T03:08:14;30.53;;;27.50;;
1509;SDS011;746;48.688;9.428;2022-08-19T03:10:39;31.43;;;28.33;;
1509;SDS011;746;48.688;9.428;2022-08-19T03:13:04;31.03;;;27.93;;
1509;SDS011;746;48.688;9.428;2022-08-19T03:15:25;30.20;;;27.10;;
1509;SDS011;746;48.688;9.428;2022-08-19T03:17:48;32.20;;;28.90;;
1509;SDS011;746;48.688;9.428;2022-08-19T03:20:10;30.90;;;27.90;;
1509;SDS011;746;48.688;9.428;2022-08-19T03:22:34;32.30;;;29.20;;
1509;SDS011;746;48.688;9.428;2022-08-19T03:24:56;32.17;;;28.87;;
1509;SDS011;746;48.688;9.428;2022-08-19T03:27:18;31.83;;;28.60;;
1509;SDS011;746;48.688;9.428;2022-08-19T03:29:39;30.00;;;26.93;;
1509;SDS011;746;48.688;9.428;2022-08-19T03:32:04;30.47;;;27.57;;
1509;SDS011;746;48.688;9.428;2022-08-19T03:34:46;29.67;;;26.60;;
1509;SDS011;746;48.688;9.428;2022-08-19T03:37:09;31.73;;;28.43;;
1509;SDS011;746;48.688;9.428;2022-08-19T03:39:33;30.10;;;27.07;;
1509;SDS011;746;48.688;9.428;2022-08-19T03:41:56;29.53;;;26.73;;
1509;SDS011;746;48.688;9.428;2022-08-19T03:44:42;30.60;;;27.60;;
1509;SDS011;746;48.688;9.428;2022-08-19T03:47:04;30.43;;;27.33;;
1509;SDS011;746;48.688;9.428;2022-08-19T03:49:27;29.87;;;26.87;;
1509;SDS011;746;48.688;9.428;2022-08-19T03:51:49;29.40;;;26.43;;
1509;SDS011;746;48.688;9.428;2022-08-19T03:54:12;29.53;;;26.67;;
1509;SDS011;746;48.688;9.428;2022-08-19T03:56:37;30.20;;;27.00;;
1509;SDS011;746;48.688;9.428;2022-08-19T03:58:59;29.63;;;26.73;;
1509;SDS011;746;48.688;9.428;2022-08-19T04:01:21;31.03;;;27.70;;
1509;SDS011;746;48.688;9.428;2022-08-19T04:03:55;28.30;;;25.47;;
1509;SDS011;746;48.688;9.428;2022-08-19T04:06:19;29.17;;;26.27;;
1509;SDS011;746;48.688;9.428;2022-08-19T04:08:42;30.93;;;27.90;;
1509;SDS011;746;48.688;9.428;2022-08-19T04:11:06;31.23;;;28.13;;
1509;SDS011;746;48.688;9.428;2022-08-19T04:13:30;28.57;;;25.67;;
1509;SDS011;746;48.688;9.428;2022-08-19T04:15:51;29.20;;;26.37;;
1509;SDS011;746;48.688;9.428;2022-08-19T04:18:13;30.90;;;27.60;;
1509;SDS011;746;48.688;9.428;2022-08-19T04:20:38;28.17;;;25.33;;
1509;SDS011;746;48.688;9.428;2022-08-19T04:23:02;27.77;;;25.07;;
1509;SDS011;746;48.688;9.428;2022-08-19T04:25:24;28.97;;;25.97;;
1509;SDS011;746;48.688;9.428;2022-08-19T04:27:45;28.00;;;25.13;;
1509;SDS011;746;48.688;9.428;2022-08-19T04:30:10;27.77;;;25.20;;
1509;SDS011;746;48.688;9.428;2022-08-19T04:32:32;26.77;;;24.17;;
1509;SDS011;746;48.688;9.428;2022-08-19T04:34:55;26.70;;;24.07;;
1509;SDS011;746;48.688;9.428;2022-08-19T04:37:35;28.50;;;25.40;;
1509;SDS011;746;48.688;9.428;2022-08-19T04:39:57;25.43;;;23.03;;
1509;SDS011;746;48.688;9.428;2022-08-19T04:42:36;28.77;;;25.83;;
1509;SDS011;746;48.688;9.428;2022-08-19T04:44:59;29.17;;;26.10;;
1509;SDS011;746;48.688;9.428;2022-08-19T04:47:25;29.83;;;26.77;;
1509;SDS011;746;48.688;9.428;2022-08-19T04:50:07;28.83;;;25.90;;
1509;SDS011;746;48.688;9.428;2022-08-19T04:52:32;30.10;;;27.07;;
1509;SDS011;746;48.688;9.428;2022-08-19T04:54:53;28.73;;;25.70;;
1509;SDS011;746;48.688;9.428;2022-08-19T04:57:15;28.43;;;25.53;;
1509;SDS011;746;48.688;9.428;2022-08-19T04:59:37;29.63;;;26.63;;
1509;SDS011;746;48.688;9.428;2022-08-19T05:01:59;28.70;;;25.70;;
1509;SDS011;746;48.688;9.428;2022-08-19T05:04:22;30.80;;;27.57;;
1509;SDS011;746;48.688;9.428;2022-08-19T05:06:43;29.77;;;26.80;;
1509;SDS011;746;48.688;9.428;2022-08-19T05:09:04;28.63;;;25.63;;
1509;SDS011;746;48.688;9.428;2022-08-19T05:11:27;28.83;;;25.93;;
1509;SDS011;746;48.688;9.428;2022-08-19T05:13:50;28.73;;;25.73;;
1509;SDS011;746;48.688;9.428;2022-08-19T05:16:12;29.30;;;26.33;;
1509;SDS011;746;48.688;9.428;2022-08-19T05:18:35;28.83;;;25.93;;
1509;SDS011;746;48.688;9.428;2022-08-19T05:21:17;28.63;;;25.80;;
1509;SDS011;746;48.688;9.428;2022-08-19T05:24:03;28.73;;;25.93;;
1509;SDS011;746;48.688;9.428;2022-08-19T05:26:28;30.20;;;26.97;;
1509;SDS011;746;48.688;9.428;2022-08-19T05:28:49;27.77;;;24.77;;
1509;SDS011;746;48.688;9.428;2022-08-19T05:31:13;30.47;;;27.27;;
1509;SDS011;746;48.688;9.428;2022-08-19T05:33:35;29.80;;;26.77;;
1509;SDS011;746;48.688;9.428;2022-08-19T05:35:57;31.83;;;28.50;;
1509;SDS011;746;48.688;9.428;2022-08-19T05:38:20;29.93;;;26.93;;
1509;SDS011;746;48.688;9.428;2022-08-19T05:40:42;30.60;;;27.47;;
1509;SDS011;746;48.688;9.428;2022-08-19T05:43:09;29.00;;;26.00;;
1509;SDS011;746;48.688;9.428;2022-08-19T05:45:31;30.43;;;27.43;;
1509;SDS011;746;48.688;9.428;2022-08-19T05:47:53;29.10;;;26.30;;
1509;SDS011;746;48.688;9.428;2022-08-19T05:50:14;30.23;;;27.13;;
1509;SDS011;746;48.688;9.428;2022-08-19T05:52:37;29.87;;;27.07;;
1509;SDS011;746;48.688;9.428;2022-08-19T05:55:06;28.80;;;25.97;;
1509;SDS011;746;48.688;9.428;2022-08-19T05:57:29;29.53;;;26.63;;
1509;SDS011;746;48.688;9.428;2022-08-19T05:59:51;31.53;;;28.23;;
1509;SDS011;746;48.688;9.428;2022-08-19T06:02:17;28.90;;;26.10;;
1509;SDS011;746;48.688;9.428;2022-08-19T06:04:39;30.43;;;27.43;;
1509;SDS011;746;48.688;9.428;2022-08-19T06:07:03;29.97;;;27.07;;
1509;SDS011;746;48.688;9.428;2022-08-19T06:09:31;29.97;;;26.90;;
1509;SDS011;746;48.688;9.428;2022-08-19T06:11:55;29.80;;;26.90;;
1509;SDS011;746;48.688;9.428;2022-08-19T06:14:19;29.77;;;26.77;;
1509;SDS011;746;48.688;9.428;2022-08-19T06:16:47;30.77;;;27.57;;
1509;SDS011;746;48.688;9.428;2022-08-19T06:19:09;30.43;;;27.37;;
1509;SDS011;746;48.688;9.428;2022-08-19T06:21:32;29.57;;;26.57;;
1509;SDS011;746;48.688;9.428;2022-08-19T06:23:54;32.17;;;29.07;;
1509;SDS011;746;48.688;9.428;2022-08-19T06:26:17;32.43;;;29.20;;
1509;SDS011;746;48.688;9.428;2022-08-19T06:28:40;36.20;;;29.37;;
1509;SDS011;746;48.688;9.428;2022-08-19T06:31:06;33.27;;;29.87;;
1509;SDS011;746;48.688;9.428;2022-08-19T06:33:28;40.83;;;32.80;;
1509;SDS011;746;48.688;9.428;2022-08-19T06:35:50;33.47;;;30.00;;
1509;SDS011;746;48.688;9.428;2022-08-19T06:38:12;35.00;;;31.27;;
1509;SDS011;746;48.688;9.428;2022-08-19T06:40:34;33.07;;;29.30;;
1509;SDS011;746;48.688;9.428;2022-08-19T06:42:55;35.20;;;31.60;;
1509;SDS011;746;48.688;9.428;2022-08-19T06:45:22;34.57;;;30.87;;
1509;SDS011;746;48.688;9.428;2022-08-19T06:47:54;35.20;;;31.67;;
1509;SDS011;746;48.688;9.428;2022-08-19T06:50:15;36.37;;;32.47;;
1509;SDS011;746;48.688;9.428;2022-08-19T06:52:37;37.13;;;33.23;;
1509;SDS011;746;48.688;9.428;2022-08-19T06:55:00;38.27;;;34.27;;
1509;SDS011;746;48.688;9.428;2022-08-19T06:57:25;36.70;;;32.93;;
1509;SDS011;746;48.688;9.428;2022-08-19T06:59:51;37.60;;;33.87;;
1509;SDS011;746;48.688;9.428;2022-08-19T07:02:13;38.40;;;34.20;;
1509;SDS011;746;48.688;9.428;2022-08-19T07:04:35;35.17;;;31.47;;
1509;SDS011;746;48.688;9.428;2022-08-19T07:07:04;37.23;;;33.47;;
1509;SDS011;746;48.688;9.428;2022-08-19T07:09:41;36.53;;;32.90;;
1509;SDS011;746;48.688;9.428;2022-08-19T07:12:14;39.43;;;35.50;;
1509;SDS011;746;48.688;9.428;2022-08-19T07:14:36;37.23;;;33.27;;
1509;SDS011;746;48.688;9.428;2022-08-19T07:16:58;37.10;;;33.33;;
1509;SDS011;746;48.688;9.428;2022-08-19T07:19:22;37.33;;;33.63;;
1509;SDS011;746;48.688;9.428;2022-08-19T07:21:46;37.27;;;33.47;;
1509;SDS011;746;48.688;9.428;2022-08-19T07:24:09;37.70;;;33.73;;
1509;SDS011;746;48.688;9.428;2022-08-19T07:26:32;36.40;;;32.60;;
1509;SDS011;746;48.688;9.428;2022-08-19T07:28:56;36.77;;;32.67;;
1509;SDS011;746;48.688;9.428;2022-08-19T07:31:19;36.30;;;32.50;;
1509;SDS011;746;48.688;9.428;2022-08-19T07:33:43;36.90;;;32.97;;
1509;SDS011;746;48.688;9.428;2022-08-19T07:36:08;37.43;;;33.53;;
1509;SDS011;746;48.688;9.428;2022-08-19T07:38:32;34.63;;;31.20;;
1509;SDS011;746;48.688;9.428;2022-08-19T07:40:53;34.57;;;31.13;;
1509;SDS011;746;48.688;9.428;2022-08-19T07:43:14;37.43;;;33.67;;
1509;SDS011;746;48.688;9.428;2022-08-19T07:45:37;33.90;;;30.43;;
1509;SDS011;746;48.688;9.428;2022-08-19T07:47:59;35.03;;;31.63;;
1509;SDS011;746;48.688;9.428;2022-08-19T07:50:21;33.67;;;30.30;;
1509;SDS011;746;48.688;9.428;2022-08-19T07:52:44;35.07;;;31.67;;
1509;SDS011;746;48.688;9.428;2022-08-19T07:55:08;35.23;;;31.73;;
1509;SDS011;746;48.688;9.428;2022-08-19T07:57:50;34.70;;;31.20;;
1509;SDS011;746;48.688;9.428;2022-08-19T08:00:14;35.03;;;31.43;;
1509;SDS011;746;48.688;9.428;2022-08-19T08:02:43;33.30;;;30.00;;
1509;SDS011;746;48.688;9.428;2022-08-19T08:05:06;35.23;;;31.73;;
1509;SDS011;746;48.688;9.428;2022-08-19T08:07:55;33.90;;;30.50;;
1509;SDS011;746;48.688;9.428;2022-08-19T08:10:34;34.97;;;31.53;;
1509;SDS011;746;48.688;9.428;2022-08-19T08:12:56;34.50;;;30.80;;
1509;SDS011;746;48.688;9.428;2022-08-19T08:15:30;35.00;;;31.50;;
1509;SDS011;746;48.688;9.428;2022-08-19T08:17:51;33.47;;;29.93;;
1509;SDS011;746;48.688;9.428;2022-08-19T08:20:13;34.03;;;30.50;;
1509;SDS011;746;48.688;9.428;2022-08-19T08:22:34;36.47;;;32.77;;
1509;SDS011;746;48.688;9.428;2022-08-19T08:25:16;35.67;;;31.93;;
1509;SDS011;746;48.688;9.428;2022-08-19T08:27:41;34.57;;;31.20;;
1509;SDS011;746;48.688;9.428;2022-08-19T08:30:05;34.73;;;31.13;;
1509;SDS011;746;48.688;9.428;2022-08-19T08:32:28;34.47;;;30.80;;
1509;SDS011;746;48.688;9.428;2022-08-19T08:34:49;34.47;;;30.83;;
1509;SDS011;746;48.688;9.428;2022-08-19T08:37:11;34.43;;;30.90;;
1509;SDS011;746;48.688;9.428;2022-08-19T08:39:35;36.07;;;32.17;;
1509;SDS011;746;48.688;9.428;2022-08-19T08:42:04;33.97;;;30.47;;
1509;SDS011;746;48.688;9.428;2022-08-19T08:44:39;34.33;;;30.77;;
1509;SDS011;746;48.688;9.428;2022-08-19T08:47:09;34.97;;;31.33;;
1509;SDS011;746;48.688;9.428;2022-08-19T08:49:36;33.93;;;30.40;;
1509;SDS011;746;48.688;9.428;2022-08-19T08:52:03;34.33;;;30.87;;
1509;SDS011;746;48.688;9.428;2022-08-19T08:54:27;32.73;;;29.33;;
1509;SDS011;746;48.688;9.428;2022-08-19T08:56:53;33.07;;;29.67;;
1509;SDS011;746;48.688;9.428;2022-08-19T08:59:19;32.30;;;29.20;;
1509;SDS011;746;48.688;9.428;2022-08-19T09:01:42;32.47;;;29.10;;
1509;SDS011;746;48.688;9.428;2022-08-19T09:04:04;30.77;;;27.90;;
1509;SDS011;746;48.688;9.428;2022-08-19T09:06:29;32.37;;;29.07;;
1509;SDS011;746;48.688;9.428;2022-08-19T09:08:57;32.57;;;29.37;;
1509;SDS011;746;48.688;9.428;2022-08-19T09:11:35;32.70;;;29.40;;
1509;SDS011;746;48.688;9.428;2022-08-19T09:14:07;33.23;;;29.93;;
1509;SDS011;746;48.688;9.428;2022-08-19T09:16:53;31.53;;;28.23;;
1509;SDS011;746;48.688;9.428;2022-08-19T09:19:15;31.87;;;28.77;;
1509;SDS011;746;48.688;9.428;2022-08-19T09:21:41;32.37;;;29.07;;
1509;SDS011;746;48.688;9.428;2022-08-19T09:24:02;30.53;;;27.57;;
1509;SDS011;746;48.688;9.428;2022-08-19T09:26:25;31.00;;;27.87;;
1509;SDS011;746;48.688;9.428;2022-08-19T09:29:07;31.50;;;28.37;;
1509;SDS011;746;48.688;9.428;2022-08-19T09:31:29;31.27;;;28.20;;
1509;SDS011;746;48.688;9.428;2022-08-19T09:33:53;32.43;;;29.13;;
1509;SDS011;746;48.688;9.428;2022-08-19T09:36:18;32.60;;;29.37;;
1509;SDS011;746;48.688;9.428;2022-08-19T09:38:54;33.90;;;30.30;;
1509;SDS011;746;48.688;9.428;2022-08-19T09:41:19;33.17;;;29.77;;
1509;SDS011;746;48.688;9.428;2022-08-19T09:43:44;33.17;;;29.77;;
1509;SDS011;746;48.688;9.428;2022-08-19T09:46:08;34.03;;;30.67;;
1509;SDS011;746;48.688;9.428;2022-08-19T09:48:29;33.07;;;29.50;;
1509;SDS011;746;48.688;9.428;2022-08-19T09:50:53;32.73;;;29.53;;
1509;SDS011;746;48.688;9.428;2022-08-19T09:53:14;35.83;;;32.33;;
1509;SDS011;746;48.688;9.428;2022-08-19T09:55:35;34.80;;;31.30;;
1509;SDS011;746;48.688;9.428;2022-08-19T09:58:02;35.73;;;32.23;;
1509;SDS011;746;48.688;9.428;2022-08-19T10:00:23;34.40;;;30.70;;
1509;SDS011;746;48.688;9.428;2022-08-19T10:02:46;38.00;;;33.90;;
1509;SDS011;746;48.688;9.428;2022-08-19T10:05:11;36.83;;;32.83;;
1509;SDS011;746;48.688;9.428;2022-08-19T10:07:52;38.40;;;34.27;;
1509;SDS011;746;48.688;9.428;2022-08-19T10:10:15;36.80;;;32.83;;
1509;SDS011;746;48.688;9.428;2022-08-19T10:12:38;35.93;;;32.07;;
1509;SDS011;746;48.688;9.428;2022-08-19T10:14:59;35.43;;;31.97;;
1509;SDS011;746;48.688;9.428;2022-08-19T10:17:21;36.13;;;32.50;;
1509;SDS011;746;48.688;9.428;2022-08-19T10:19:50;35.07;;;31.47;;
1509;SDS011;746;48.688;9.428;2022-08-19T10:22:15;36.57;;;32.87;;
1509;SDS011;746;48.688;9.428;2022-08-19T10:24:37;37.67;;;33.87;;
1509;SDS011;746;48.688;9.428;2022-08-19T10:27:00;37.80;;;33.90;;
1509;SDS011;746;48.688;9.428;2022-08-19T10:29:23;37.37;;;33.37;;
1509;SDS011;746;48.688;9.428;2022-08-19T10:31:51;36.90;;;33.03;;
1509;SDS011;746;48.688;9.428;2022-08-19T10:34:21;36.17;;;32.43;;
1509;SDS011;746;48.688;9.428;2022-08-19T10:36:47;36.63;;;32.87;;
1509;SDS011;746;48.688;9.428;2022-08-19T10:39:15;37.00;;;33.20;;
1509;SDS011;746;48.688;9.428;2022-08-19T10:41:43;46.93;;;41.77;;
1509;SDS011;746;48.688;9.428;2022-08-19T10:44:07;47.03;;;40.97;;
1509;SDS011;746;48.688;9.428;2022-08-19T10:46:33;47.30;;;42.07;;
1509;SDS011;746;48.688;9.428;2022-08-19T10:48:56;50.33;;;42.87;;
1509;SDS011;746;48.688;9.428;2022-08-19T10:51:19;46.67;;;41.43;;
1509;SDS011;746;48.688;9.428;2022-08-19T10:54:07;44.10;;;39.10;;
1509;SDS011;746;48.688;9.428;2022-08-19T10:56:31;43.77;;;38.90;;
1509;SDS011;746;48.688;9.428;2022-08-19T10:59:13;44.00;;;39.27;;
1509;SDS011;746;48.688;9.428;2022-08-19T11:01:35;46.93;;;40.33;;
1509;SDS011;746;48.688;9.428;2022-08-19T11:03:57;44.13;;;38.47;;
1509;SDS011;746;48.688;9.428;2022-08-19T11:06:19;42.77;;;37.80;;
1509;SDS011;746;48.688;9.428;2022-08-19T11:08:40;41.60;;;37.10;;
1509;SDS011;746;48.688;9.428;2022-08-19T11:11:05;42.53;;;37.93;;
1509;SDS011;746;48.688;9.428;2022-08-19T11:13:26;42.57;;;37.87;;
1509;SDS011;746;48.688;9.428;2022-08-19T11:15:56;42.93;;;38.30;;
1509;SDS011;746;48.688;9.428;2022-08-19T11:18:25;43.40;;;38.73;;
1509;SDS011;746;48.688;9.428;2022-08-19T11:20:47;41.20;;;36.70;;
1509;SDS011;746;48.688;9.428;2022-08-19T11:23:09;42.40;;;37.53;;
1509;SDS011;746;48.688;9.428;2022-08-19T11:25:32;42.67;;;37.27;;
1509;SDS011;746;48.688;9.428;2022-08-19T11:27:54;45.93;;;38.00;;
1509;SDS011;746;48.688;9.428;2022-08-19T11:30:15;42.97;;;38.50;;
1509;SDS011;746;48.688;9.428;2022-08-19T11:32:38;43.27;;;38.60;;
1509;SDS011;746;48.688;9.428;2022-08-19T11:35:05;42.10;;;37.60;;
1509;SDS011;746;48.688;9.428;2022-08-19T11:37:26;46.97;;;41.93;;
1509;SDS011;746;48.688;9.428;2022-08-19T11:39:48;43.07;;;38.33;;
1509;SDS011;746;48.688;9.428;2022-08-19T11:42:12;41.87;;;37.30;;
1509;SDS011;746;48.688;9.428;2022-08-19T11:44:52;42.13;;;37.67;;
1509;SDS011;746;48.688;9.428;2022-08-19T11:47:14;43.00;;;38.30;;
1509;SDS011;746;48.688;9.428;2022-08-19T11:49:37;43.50;;;38.80;;
1509;SDS011;746;48.688;9.428;2022-08-19T11:51:58;45.50;;;39.10;;
1509;SDS011;746;48.688;9.428;2022-08-19T11:54:19;41.63;;;37.33;;
1509;SDS011;746;48.688;9.428;2022-08-19T11:56:41;45.30;;;40.20;;
1509;SDS011;746;48.688;9.428;2022-08-19T11:59:03;42.27;;;37.67;;
1509;SDS011;746;48.688;9.428;2022-08-19T12:01:25;45.20;;;40.33;;
1509;SDS011;746;48.688;9.428;2022-08-19T12:03:47;42.17;;;37.57;;
1509;SDS011;746;48.688;9.428;2022-08-19T12:06:13;45.03;;;40.17;;
1509;SDS011;746;48.688;9.428;2022-08-19T12:08:35;44.00;;;39.30;;
1509;SDS011;746;48.688;9.428;2022-08-19T12:10:57;43.70;;;39.00;;
1509;SDS011;746;48.688;9.428;2022-08-19T12:13:20;40.93;;;36.53;;
1509;SDS011;746;48.688;9.428;2022-08-19T12:15:41;39.87;;;35.77;;
1509;SDS011;746;48.688;9.428;2022-08-19T12:18:05;40.43;;;36.30;;
1509;SDS011;746;48.688;9.428;2022-08-19T12:20:26;40.53;;;36.23;;
1509;SDS011;746;48.688;9.428;2022-08-19T12:22:49;39.27;;;35.17;;
1509;SDS011;746;48.688;9.428;2022-08-19T12:25:11;39.37;;;35.37;;
1509;SDS011;746;48.688;9.428;2022-08-19T12:27:33;41.00;;;36.60;;
1509;SDS011;746;48.688;9.428;2022-08-19T12:30:00;41.87;;;37.50;;
1509;SDS011;746;48.688;9.428;2022-08-19T12:32:23;40.10;;;36.00;;
1509;SDS011;746;48.688;9.428;2022-08-19T12:34:46;41.03;;;36.57;;
1509;SDS011;746;48.688;9.428;2022-08-19T12:37:08;43.10;;;38.40;;
1509;SDS011;746;48.688;9.428;2022-08-19T12:39:34;45.97;;;39.70;;
1509;SDS011;746;48.688;9.428;2022-08-19T12:41:57;44.63;;;39.73;;
1509;SDS011;746;48.688;9.428;2022-08-19T12:44:19;45.20;;;39.03;;
1509;SDS011;746;48.688;9.428;2022-08-19T12:46:48;43.03;;;37.80;;
1509;SDS011;746;48.688;9.428;2022-08-19T12:49:12;43.90;;;38.47;;
1509;SDS011;746;48.688;9.428;2022-08-19T12:51:55;45.03;;;39.67;;
1509;SDS011;746;48.688;9.428;2022-08-19T12:54:18;48.73;;;40.43;;
1509;SDS011;746;48.688;9.428;2022-08-19T12:56:41;51.37;;;41.10;;
1509;SDS011;746;48.688;9.428;2022-08-19T12:59:03;53.73;;;42.43;;
1509;SDS011;746;48.688;9.428;2022-08-19T13:01:26;53.13;;;42.07;;
1509;SDS011;746;48.688;9.428;2022-08-19T13:03:52;50.53;;;41.83;;
1509;SDS011;746;48.688;9.428;2022-08-19T13:06:14;51.70;;;43.33;;
1509;SDS011;746;48.688;9.428;2022-08-19T13:08:39;52.47;;;43.77;;
1509;SDS011;746;48.688;9.428;2022-08-19T13:11:08;52.73;;;43.40;;
1509;SDS011;746;48.688;9.428;2022-08-19T13:13:33;53.87;;;43.17;;
1509;SDS011;746;48.688;9.428;2022-08-19T13:15:59;50.93;;;43.23;;
1509;SDS011;746;48.688;9.428;2022-08-19T13:18:22;52.17;;;42.97;;
1509;SDS011;746;48.688;9.428;2022-08-19T13:20:45;50.50;;;42.77;;
1509;SDS011;746;48.688;9.428;2022-08-19T13:23:12;53.87;;;44.10;;
1509;SDS011;746;48.688;9.428;2022-08-19T13:25:33;48.90;;;41.17;;
1509;SDS011;746;48.688;9.428;2022-08-19T13:27:55;46.47;;;39.57;;
1509;SDS011;746;48.688;9.428;2022-08-19T13:30:19;49.17;;;40.07;;
1509;SDS011;746;48.688;9.428;2022-08-19T13:32:58;45.97;;;39.87;;
1509;SDS011;746;48.688;9.428;2022-08-19T13:35:34;48.53;;;41.10;;
1509;SDS011;746;48.688;9.428;2022-08-19T13:37:56;58.63;;;43.47;;
1509;SDS011;746;48.688;9.428;2022-08-19T13:40:19;53.90;;;42.67;;
1509;SDS011;746;48.688;9.428;2022-08-19T13:42:43;54.47;;;43.73;;
1509;SDS011;746;48.688;9.428;2022-08-19T13:45:07;55.53;;;43.17;;
1509;SDS011;746;48.688;9.428;2022-08-19T13:47:31;52.33;;;44.00;;
1509;SDS011;746;48.688;9.428;2022-08-19T13:49:54;55.67;;;44.97;;
1509;SDS011;746;48.688;9.428;2022-08-19T13:52:15;54.73;;;43.40;;
1509;SDS011;746;48.688;9.428;2022-08-19T13:54:36;53.23;;;44.23;;
1509;SDS011;746;48.688;9.428;2022-08-19T13:56:57;44.43;;;39.43;;
1509;SDS011;746;48.688;9.428;2022-08-19T13:59:19;46.53;;;39.90;;
1509;SDS011;746;48.688;9.428;2022-08-19T14:01:41;50.90;;;41.63;;
1509;SDS011;746;48.688;9.428;2022-08-19T14:04:04;44.20;;;38.90;;
1509;SDS011;746;48.688;9.428;2022-08-19T14:06:26;45.43;;;39.40;;
1509;SDS011;746;48.688;9.428;2022-08-19T14:08:48;47.33;;;40.93;;
1509;SDS011;746;48.688;9.428;2022-08-19T14:11:09;56.80;;;43.40;;
1509;SDS011;746;48.688;9.428;2022-08-19T14:13:31;50.33;;;42.60;;
1509;SDS011;746;48.688;9.428;2022-08-19T14:15:53;50.90;;;42.60;;
1509;SDS011;746;48.688;9.428;2022-08-19T14:18:15;51.20;;;42.73;;
1509;SDS011;746;48.688;9.428;2022-08-19T14:20:38;48.50;;;39.97;;
1509;SDS011;746;48.688;9.428;2022-08-19T14:22:59;45.40;;;39.50;;
1509;SDS011;746;48.688;9.428;2022-08-19T14:25:22;46.37;;;40.77;;
1509;SDS011;746;48.688;9.428;2022-08-19T14:27:44;45.03;;;39.07;;
1509;SDS011;746;48.688;9.428;2022-08-19T14:30:07;45.63;;;39.63;;
1509;SDS011;746;48.688;9.428;2022-08-19T14:32:29;42.37;;;37.97;;
1509;SDS011;746;48.688;9.428;2022-08-19T14:34:51;42.30;;;34.33;;
1509;SDS011;746;48.688;9.428;2022-08-19T14:37:14;40.53;;;36.23;;
1509;SDS011;746;48.688;9.428;2022-08-19T14:39:36;38.90;;;34.80;;
1509;SDS011;746;48.688;9.428;2022-08-19T14:41:57;38.43;;;34.63;;
1509;SDS011;746;48.688;9.428;2022-08-19T14:44:19;39.67;;;35.60;;